sensor_id;sensor_type;location;lat;lon;timestamp;temperature;humidity
46440;DHT22;32138;50.966;6.968;2023-02-01T00:00:34;9.30;99.50
46440;DHT22;32138;50.966;6.968;2023-02-01T00:01:35;9.30;99.60
46440;DHT22;32138;50.966;6.968;2023-02-01T00:02:35;9.30;99.60
46440;DHT22;32138;50.966;6.968;2023-02-01T00:03:40;9.30;99.50
46440;DHT22;32138;50.966;6.968;2023-02-01T00:04:40;9.30;99.60
46440;DHT22;32138;50.966;6.968;2023-02-01T00:05:41;9.30;99.60
46440;DHT22;32138;50.966;6.968;2023-02-01T00:06:42;9.30;99.80
46440;DHT22;32138;50.966;6.968;2023-02-01T00:07:42;9.30;99.60
46440;DHT22;32138;50.966;6.968;2023-02-01T00:08:48;9.30;99.70
46440;DHT22;32138;50.966;6.968;2023-02-01T00:09:53;9.30;99.80
46440;DHT22;32138;50.966;6.968;2023-02-01T00:11:05;9.30;99.70
46440;DHT22;32138;50.966;6.968;2023-02-01T00:12:07;9.30;99.60
46440;DHT22;32138;50.966;6.968;2023-02-01T00:13:08;9.30;99.90
46440;DHT22;32138;50.966;6.968;2023-02-01T00:14:09;9.20;99.90
46440;DHT22;32138;50.966;6.968;2023-02-01T00:15:10;9.20;99.90
46440;DHT22;32138;50.966;6.968;2023-02-01T00:16:14;9.20;99.90
46440;DHT22;32138;50.966;6.968;2023-02-01T00:17:19;9.20;99.90
46440;DHT22;32138;50.966;6.968;2023-02-01T00:18:20;9.10;99.90
46440;DHT22;32138;50.966;6.968;2023-02-01T00:19:21;9.10;99.90
46440;DHT22;32138;50.966;6.968;2023-02-01T00:20:21;9.10;99.90
46440;DHT22;32138;50.966;6.968;2023-02-01T00:21:22;9.10;99.90
46440;DHT22;32138;50.966;6.968;2023-02-01T00:22:23;9.20;99.90
46440;DHT22;32138;50.966;6.968;2023-02-01T00:23:24;9.20;99.90
46440;DHT22;32138;50.966;6.968;2023-02-01T00:24:25;9.20;99.90
46440;DHT22;32138;50.966;6.968;2023-02-01T00:25:25;9.20;99.90
46440;DHT22;32138;50.966;6.968;2023-02-01T00:26:37;9.20;99.90
46440;DHT22;32138;50.966;6.968;2023-02-01T00:27:40;9.10;99.90
46440;DHT22;32138;50.966;6.968;2023-02-01T00:28:40;9.10;99.90
46440;DHT22;32138;50.966;6.968;2023-02-01T00:29:41;9.20;99.90
46440;DHT22;32138;50.966;6.968;2023-02-01T00:30:42;9.10;99.90
46440;DHT22;32138;50.966;6.968;2023-02-01T00:31:43;9.10;99.90
46440;DHT22;32138;50.966;6.968;2023-02-01T00:32:44;9.20;99.90
46440;DHT22;32138;50.966;6.968;2023-02-01T00:33:47;9.20;99.90
46440;DHT22;32138;50.966;6.968;2023-02-01T00:34:48;9.20;99.90
46440;DHT22;32138;50.966;6.968;2023-02-01T00:35:49;9.20;99.90
46440;DHT22;32138;50.966;6.968;2023-02-01T00:36:50;9.20;99.90
46440;DHT22;32138;50.966;6.968;2023-02-01T00:37:51;9.10;99.90
46440;DHT22;32138;50.966;6.968;2023-02-01T00:38:51;9.10;99.80
46440;DHT22;32138;50.966;6.968;2023-02-01T00:39:52;9.10;99.80
46440;DHT22;32138;50.966;6.968;2023-02-01T00:41:02;9.10;99.60
46440;DHT22;32138;50.966;6.968;2023-02-01T00:42:05;9.00;99.50
46440;DHT22;32138;50.966;6.968;2023-02-01T00:43:05;9.00;99.30
46440;DHT22;32138;50.966;6.968;2023-02-01T00:44:06;9.00;99.30
46440;DHT22;32138;50.966;6.968;2023-02-01T00:45:07;9.00;99.30
46440;DHT22;32138;50.966;6.968;2023-02-01T00:46:09;9.00;99.20
46440;DHT22;32138;50.966;6.968;2023-02-01T00:47:11;9.10;99.10
46440;DHT22;32138;50.966;6.968;2023-02-01T00:48:12;9.00;98.70
46440;DHT22;32138;50.966;6.968;2023-02-01T00:49:13;9.00;98.90
46440;DHT22;32138;50.966;6.968;2023-02-01T00:50:14;9.00;98.60
46440;DHT22;32138;50.966;6.968;2023-02-01T00:51:19;9.00;98.40
46440;DHT22;32138;50.966;6.968;2023-02-01T00:52:21;9.00;98.40
46440;DHT22;32138;50.966;6.968;2023-02-01T00:53:22;9.00;98.30
46440;DHT22;32138;50.966;6.968;2023-02-01T00:54:23;9.00;98.40
46440;DHT22;32138;50.966;6.968;2023-02-01T00:55:23;9.00;98.20
46440;DHT22;32138;50.966;6.968;2023-02-01T00:56:24;9.00;98.10
46440;DHT22;32138;50.966;6.968;2023-02-01T00:57:27;9.00;98.10
46440;DHT22;32138;50.966;6.968;2023-02-01T00:58:28;9.00;98.00
46440;DHT22;32138;50.966;6.968;2023-02-01T00:59:29;9.00;98.10
46440;DHT22;32138;50.966;6.968;2023-02-01T01:00:29;9.10;98.10
46440;DHT22;32138;50.966;6.968;2023-02-01T01:01:30;9.10;98.00
46440;DHT22;32138;50.966;6.968;2023-02-01T01:02:31;9.10;97.90
46440;DHT22;32138;50.966;6.968;2023-02-01T01:03:33;9.00;97.60
46440;DHT22;32138;50.966;6.968;2023-02-01T01:04:35;9.00;97.60
46440;DHT22;32138;50.966;6.968;2023-02-01T01:05:36;9.00;97.60
46440;DHT22;32138;50.966;6.968;2023-02-01T01:06:37;8.90;97.20
46440;DHT22;32138;50.966;6.968;2023-02-01T01:07:37;8.90;97.70
46440;DHT22;32138;50.966;6.968;2023-02-01T01:08:39;8.90;97.50
46440;DHT22;32138;50.966;6.968;2023-02-01T01:09:40;8.90;97.50
46440;DHT22;32138;50.966;6.968;2023-02-01T01:10:42;9.00;97.50
46440;DHT22;32138;50.966;6.968;2023-02-01T01:11:43;8.90;96.80
46440;DHT22;32138;50.966;6.968;2023-02-01T01:12:43;8.90;96.70
46440;DHT22;32138;50.966;6.968;2023-02-01T01:13:47;8.90;96.50
46440;DHT22;32138;50.966;6.968;2023-02-01T01:14:48;8.90;96.70
46440;DHT22;32138;50.966;6.968;2023-02-01T01:15:49;9.00;96.70
46440;DHT22;32138;50.966;6.968;2023-02-01T01:16:50;9.00;96.30
46440;DHT22;32138;50.966;6.968;2023-02-01T01:17:50;9.00;96.30
46440;DHT22;32138;50.966;6.968;2023-02-01T01:18:52;9.00;96.10
46440;DHT22;32138;50.966;6.968;2023-02-01T01:19:53;8.90;95.70
46440;DHT22;32138;50.966;6.968;2023-02-01T01:20:54;8.90;96.10
46440;DHT22;32138;50.966;6.968;2023-02-01T01:21:55;9.00;96.10
46440;DHT22;32138;50.966;6.968;2023-02-01T01:22:55;9.10;96.00
46440;DHT22;32138;50.966;6.968;2023-02-01T01:23:56;9.10;95.90
46440;DHT22;32138;50.966;6.968;2023-02-01T01:24:57;9.10;95.80
46440;DHT22;32138;50.966;6.968;2023-02-01T01:25:58;9.00;95.70
46440;DHT22;32138;50.966;6.968;2023-02-01T01:26:59;9.00;95.50
46440;DHT22;32138;50.966;6.968;2023-02-01T01:28:00;9.00;95.50
46440;DHT22;32138;50.966;6.968;2023-02-01T01:29:00;9.00;95.50
46440;DHT22;32138;50.966;6.968;2023-02-01T01:30:01;9.00;95.10
46440;DHT22;32138;50.966;6.968;2023-02-01T01:31:02;8.80;95.30
46440;DHT22;32138;50.966;6.968;2023-02-01T01:32:03;8.80;95.50
46440;DHT22;32138;50.966;6.968;2023-02-01T01:33:04;8.90;95.30
46440;DHT22;32138;50.966;6.968;2023-02-01T01:34:05;8.80;95.10
46440;DHT22;32138;50.966;6.968;2023-02-01T01:35:06;8.90;95.20
46440;DHT22;32138;50.966;6.968;2023-02-01T01:36:08;8.70;95.10
46440;DHT22;32138;50.966;6.968;2023-02-01T01:37:12;8.70;95.20
46440;DHT22;32138;50.966;6.968;2023-02-01T01:38:13;8.80;95.00
46440;DHT22;32138;50.966;6.968;2023-02-01T01:39:13;8.60;95.10
46440;DHT22;32138;50.966;6.968;2023-02-01T01:40:14;8.70;95.30
46440;DHT22;32138;50.966;6.968;2023-02-01T01:41:20;8.70;95.30
46440;DHT22;32138;50.966;6.968;2023-02-01T01:42:25;8.80;95.20
46440;DHT22;32138;50.966;6.968;2023-02-01T01:45:56;8.70;94.90
46440;DHT22;32138;50.966;6.968;2023-02-01T01:46:57;8.70;95.30
46440;DHT22;32138;50.966;6.968;2023-02-01T01:48:00;8.70;94.80
46440;DHT22;32138;50.966;6.968;2023-02-01T01:49:05;8.50;94.90
46440;DHT22;32138;50.966;6.968;2023-02-01T01:50:11;8.50;95.30
46440;DHT22;32138;50.966;6.968;2023-02-01T01:51:20;8.60;95.10
46440;DHT22;32138;50.966;6.968;2023-02-01T01:52:22;8.60;94.80
46440;DHT22;32138;50.966;6.968;2023-02-01T01:53:28;8.60;94.60
46440;DHT22;32138;50.966;6.968;2023-02-01T01:54:46;8.60;94.80
46440;DHT22;32138;50.966;6.968;2023-02-01T01:55:49;8.60;94.70
46440;DHT22;32138;50.966;6.968;2023-02-01T01:56:56;8.60;94.70
46440;DHT22;32138;50.966;6.968;2023-02-01T01:58:11;8.60;94.80
46440;DHT22;32138;50.966;6.968;2023-02-01T01:59:14;8.70;94.50
46440;DHT22;32138;50.966;6.968;2023-02-01T02:00:17;8.70;94.60
46440;DHT22;32138;50.966;6.968;2023-02-01T02:01:20;8.70;94.60
46440;DHT22;32138;50.966;6.968;2023-02-01T02:02:20;8.70;94.50
46440;DHT22;32138;50.966;6.968;2023-02-01T02:03:25;8.70;94.50
46440;DHT22;32138;50.966;6.968;2023-02-01T02:04:28;8.80;94.50
46440;DHT22;32138;50.966;6.968;2023-02-01T02:05:30;8.80;94.30
46440;DHT22;32138;50.966;6.968;2023-02-01T02:06:45;8.80;94.40
46440;DHT22;32138;50.966;6.968;2023-02-01T02:08:07;8.80;94.40
46440;DHT22;32138;50.966;6.968;2023-02-01T02:09:08;8.70;94.50
46440;DHT22;32138;50.966;6.968;2023-02-01T02:10:10;8.70;94.40
46440;DHT22;32138;50.966;6.968;2023-02-01T02:11:16;8.70;94.30
46440;DHT22;32138;50.966;6.968;2023-02-01T02:12:17;8.70;94.30
46440;DHT22;32138;50.966;6.968;2023-02-01T02:13:19;8.80;94.40
46440;DHT22;32138;50.966;6.968;2023-02-01T02:14:21;8.80;94.30
46440;DHT22;32138;50.966;6.968;2023-02-01T02:15:24;8.80;94.20
46440;DHT22;32138;50.966;6.968;2023-02-01T02:18:00;8.80;94.20
46440;DHT22;32138;50.966;6.968;2023-02-01T02:19:32;8.80;94.00
46440;DHT22;32138;50.966;6.968;2023-02-01T02:34:46;8.70;94.20
46440;DHT22;32138;50.966;6.968;2023-02-01T02:36:01;8.70;94.20
46440;DHT22;32138;50.966;6.968;2023-02-01T02:37:33;8.70;94.10
46440;DHT22;32138;50.966;6.968;2023-02-01T02:40:35;8.60;94.50
46440;DHT22;32138;50.966;6.968;2023-02-01T02:43:52;8.50;94.40
46440;DHT22;32138;50.966;6.968;2023-02-01T02:45:18;8.50;94.80
46440;DHT22;32138;50.966;6.968;2023-02-01T02:46:48;8.60;94.80
46440;DHT22;32138;50.966;6.968;2023-02-01T02:48:34;8.60;94.90
46440;DHT22;32138;50.966;6.968;2023-02-01T02:49:49;8.60;94.80
46440;DHT22;32138;50.966;6.968;2023-02-01T02:53:02;8.60;95.00
46440;DHT22;32138;50.966;6.968;2023-02-01T02:54:29;8.60;94.90
46440;DHT22;32138;50.966;6.968;2023-02-01T02:55:47;8.60;94.50
46440;DHT22;32138;50.966;6.968;2023-02-01T02:56:53;8.60;94.90
46440;DHT22;32138;50.966;6.968;2023-02-01T02:58:13;8.70;94.90
46440;DHT22;32138;50.966;6.968;2023-02-01T02:59:35;8.60;94.70
46440;DHT22;32138;50.966;6.968;2023-02-01T03:00:55;8.60;94.90
46440;DHT22;32138;50.966;6.968;2023-02-01T03:02:16;8.60;95.20
46440;DHT22;32138;50.966;6.968;2023-02-01T03:03:37;8.60;95.10
46440;DHT22;32138;50.966;6.968;2023-02-01T03:04:57;8.60;95.10
46440;DHT22;32138;50.966;6.968;2023-02-01T03:05:57;8.60;95.20
46440;DHT22;32138;50.966;6.968;2023-02-01T03:07:12;8.60;95.20
46440;DHT22;32138;50.966;6.968;2023-02-01T03:09:26;8.60;95.00
46440;DHT22;32138;50.966;6.968;2023-02-01T03:10:47;8.50;95.20
46440;DHT22;32138;50.966;6.968;2023-02-01T03:11:58;8.60;95.10
46440;DHT22;32138;50.966;6.968;2023-02-01T03:14:49;8.70;95.00
46440;DHT22;32138;50.966;6.968;2023-02-01T03:16:01;8.70;95.30
46440;DHT22;32138;50.966;6.968;2023-02-01T03:17:17;8.70;94.90
46440;DHT22;32138;50.966;6.968;2023-02-01T03:18:27;8.70;95.50
46440;DHT22;32138;50.966;6.968;2023-02-01T03:19:39;8.80;95.20
46440;DHT22;32138;50.966;6.968;2023-02-01T03:20:49;8.80;95.10
46440;DHT22;32138;50.966;6.968;2023-02-01T03:22:08;8.80;95.20
46440;DHT22;32138;50.966;6.968;2023-02-01T03:23:14;8.80;95.10
46440;DHT22;32138;50.966;6.968;2023-02-01T03:24:26;8.80;95.20
46440;DHT22;32138;50.966;6.968;2023-02-01T03:25:36;8.80;95.20
46440;DHT22;32138;50.966;6.968;2023-02-01T03:26:40;8.70;95.40
46440;DHT22;32138;50.966;6.968;2023-02-01T03:27:49;8.70;95.40
46440;DHT22;32138;50.966;6.968;2023-02-01T03:28:57;8.70;95.30
46440;DHT22;32138;50.966;6.968;2023-02-01T03:31:10;8.70;95.60
46440;DHT22;32138;50.966;6.968;2023-02-01T03:32:11;8.80;95.50
46440;DHT22;32138;50.966;6.968;2023-02-01T03:33:15;8.80;95.50
46440;DHT22;32138;50.966;6.968;2023-02-01T03:34:24;8.90;95.40
46440;DHT22;32138;50.966;6.968;2023-02-01T03:37:29;8.90;95.20
46440;DHT22;32138;50.966;6.968;2023-02-01T03:40:27;8.80;95.40
46440;DHT22;32138;50.966;6.968;2023-02-01T03:42:24;8.70;95.60
46440;DHT22;32138;50.966;6.968;2023-02-01T03:43:35;8.80;95.50
46440;DHT22;32138;50.966;6.968;2023-02-01T03:47:06;8.60;95.30
46440;DHT22;32138;50.966;6.968;2023-02-01T03:48:12;8.70;95.50
46440;DHT22;32138;50.966;6.968;2023-02-01T03:50:00;8.70;95.60
46440;DHT22;32138;50.966;6.968;2023-02-01T03:50:46;8.70;95.70
46440;DHT22;32138;50.966;6.968;2023-02-01T03:51:50;8.70;95.60
46440;DHT22;32138;50.966;6.968;2023-02-01T03:53:05;8.70;95.80
46440;DHT22;32138;50.966;6.968;2023-02-01T03:54:12;8.70;95.50
46440;DHT22;32138;50.966;6.968;2023-02-01T03:55:17;8.60;95.70
46440;DHT22;32138;50.966;6.968;2023-02-01T03:56:21;8.60;95.70
46440;DHT22;32138;50.966;6.968;2023-02-01T03:57:32;8.70;95.60
46440;DHT22;32138;50.966;6.968;2023-02-01T03:58:35;8.70;95.60
46440;DHT22;32138;50.966;6.968;2023-02-01T03:59:39;8.60;95.60
46440;DHT22;32138;50.966;6.968;2023-02-01T04:00:50;8.70;95.60
46440;DHT22;32138;50.966;6.968;2023-02-01T04:01:54;8.60;95.50
46440;DHT22;32138;50.966;6.968;2023-02-01T04:02:55;8.60;95.40
46440;DHT22;32138;50.966;6.968;2023-02-01T04:03:57;8.70;95.60
46440;DHT22;32138;50.966;6.968;2023-02-01T04:04:59;8.70;95.60
46440;DHT22;32138;50.966;6.968;2023-02-01T04:05:59;8.60;95.30
46440;DHT22;32138;50.966;6.968;2023-02-01T04:07:00;8.60;95.40
46440;DHT22;32138;50.966;6.968;2023-02-01T04:08:01;8.60;95.30
46440;DHT22;32138;50.966;6.968;2023-02-01T04:09:02;8.70;95.30
46440;DHT22;32138;50.966;6.968;2023-02-01T04:10:03;8.60;95.30
46440;DHT22;32138;50.966;6.968;2023-02-01T04:11:05;8.70;95.30
46440;DHT22;32138;50.966;6.968;2023-02-01T04:12:06;8.70;95.30
46440;DHT22;32138;50.966;6.968;2023-02-01T04:13:06;8.70;95.40
46440;DHT22;32138;50.966;6.968;2023-02-01T04:14:08;8.70;95.30
46440;DHT22;32138;50.966;6.968;2023-02-01T04:15:09;8.70;95.20
46440;DHT22;32138;50.966;6.968;2023-02-01T04:16:10;8.60;95.40
46440;DHT22;32138;50.966;6.968;2023-02-01T04:17:11;8.60;95.20
46440;DHT22;32138;50.966;6.968;2023-02-01T04:18:11;8.50;95.20
46440;DHT22;32138;50.966;6.968;2023-02-01T04:19:12;8.60;95.40
46440;DHT22;32138;50.966;6.968;2023-02-01T04:20:13;8.60;95.40
46440;DHT22;32138;50.966;6.968;2023-02-01T04:21:15;8.70;95.20
46440;DHT22;32138;50.966;6.968;2023-02-01T04:22:15;8.80;95.20
46440;DHT22;32138;50.966;6.968;2023-02-01T04:23:16;8.80;95.10
46440;DHT22;32138;50.966;6.968;2023-02-01T04:24:17;8.70;95.10
46440;DHT22;32138;50.966;6.968;2023-02-01T04:25:18;8.70;95.40
46440;DHT22;32138;50.966;6.968;2023-02-01T04:26:19;8.60;95.30
46440;DHT22;32138;50.966;6.968;2023-02-01T04:27:20;8.60;95.40
46440;DHT22;32138;50.966;6.968;2023-02-01T04:28:21;8.70;95.20
46440;DHT22;32138;50.966;6.968;2023-02-01T04:29:22;8.70;95.20
46440;DHT22;32138;50.966;6.968;2023-02-01T04:30:23;8.80;95.20
46440;DHT22;32138;50.966;6.968;2023-02-01T04:31:24;8.60;95.20
46440;DHT22;32138;50.966;6.968;2023-02-01T04:32:28;8.60;95.30
46440;DHT22;32138;50.966;6.968;2023-02-01T04:33:28;8.70;95.30
46440;DHT22;32138;50.966;6.968;2023-02-01T04:34:29;8.60;95.30
46440;DHT22;32138;50.966;6.968;2023-02-01T04:35:30;8.70;95.30
46440;DHT22;32138;50.966;6.968;2023-02-01T04:36:30;8.60;95.00
46440;DHT22;32138;50.966;6.968;2023-02-01T04:37:31;8.60;95.10
46440;DHT22;32138;50.966;6.968;2023-02-01T04:38:32;8.60;95.10
46440;DHT22;32138;50.966;6.968;2023-02-01T04:39:33;8.70;95.10
46440;DHT22;32138;50.966;6.968;2023-02-01T04:40:34;8.70;95.10
46440;DHT22;32138;50.966;6.968;2023-02-01T04:41:34;8.70;95.10
46440;DHT22;32138;50.966;6.968;2023-02-01T04:42:35;8.70;94.50
46440;DHT22;32138;50.966;6.968;2023-02-01T04:43:36;8.70;94.90
46440;DHT22;32138;50.966;6.968;2023-02-01T04:44:37;8.70;94.90
46440;DHT22;32138;50.966;6.968;2023-02-01T04:45:39;8.70;94.90
46440;DHT22;32138;50.966;6.968;2023-02-01T04:46:40;8.70;94.80
46440;DHT22;32138;50.966;6.968;2023-02-01T04:47:41;8.70;94.90
46440;DHT22;32138;50.966;6.968;2023-02-01T04:48:42;8.70;94.80
46440;DHT22;32138;50.966;6.968;2023-02-01T04:49:43;8.60;94.90
46440;DHT22;32138;50.966;6.968;2023-02-01T04:50:44;8.50;95.00
46440;DHT22;32138;50.966;6.968;2023-02-01T04:51:48;8.40;95.20
46440;DHT22;32138;50.966;6.968;2023-02-01T04:52:48;8.40;95.10
46440;DHT22;32138;50.966;6.968;2023-02-01T04:53:49;8.40;95.10
46440;DHT22;32138;50.966;6.968;2023-02-01T04:54:50;8.30;94.80
46440;DHT22;32138;50.966;6.968;2023-02-01T04:55:51;8.30;95.10
46440;DHT22;32138;50.966;6.968;2023-02-01T04:56:55;8.20;95.40
46440;DHT22;32138;50.966;6.968;2023-02-01T04:57:56;8.20;95.30
46440;DHT22;32138;50.966;6.968;2023-02-01T04:58:57;8.10;95.50
46440;DHT22;32138;50.966;6.968;2023-02-01T04:59:57;8.10;95.60
46440;DHT22;32138;50.966;6.968;2023-02-01T05:00:58;8.20;95.50
46440;DHT22;32138;50.966;6.968;2023-02-01T05:01:59;8.20;95.30
46440;DHT22;32138;50.966;6.968;2023-02-01T05:03:00;8.20;95.40
46440;DHT22;32138;50.966;6.968;2023-02-01T05:04:01;8.30;95.20
46440;DHT22;32138;50.966;6.968;2023-02-01T05:05:02;8.30;95.10
46440;DHT22;32138;50.966;6.968;2023-02-01T05:06:03;8.30;95.00
46440;DHT22;32138;50.966;6.968;2023-02-01T05:07:05;8.30;94.90
46440;DHT22;32138;50.966;6.968;2023-02-01T05:08:05;8.30;94.80
46440;DHT22;32138;50.966;6.968;2023-02-01T05:09:06;8.20;95.10
46440;DHT22;32138;50.966;6.968;2023-02-01T05:10:07;8.20;94.90
46440;DHT22;32138;50.966;6.968;2023-02-01T05:11:09;8.20;95.20
46440;DHT22;32138;50.966;6.968;2023-02-01T05:12:32;8.30;95.10
46440;DHT22;32138;50.966;6.968;2023-02-01T05:13:51;8.30;95.00
46440;DHT22;32138;50.966;6.968;2023-02-01T05:14:52;8.20;94.80
46440;DHT22;32138;50.966;6.968;2023-02-01T05:15:53;8.20;95.00
46440;DHT22;32138;50.966;6.968;2023-02-01T05:16:54;8.20;94.70
46440;DHT22;32138;50.966;6.968;2023-02-01T05:17:54;8.20;94.90
46440;DHT22;32138;50.966;6.968;2023-02-01T05:18:55;8.20;94.70
46440;DHT22;32138;50.966;6.968;2023-02-01T05:19:56;8.20;94.80
46440;DHT22;32138;50.966;6.968;2023-02-01T05:20:57;8.10;94.90
46440;DHT22;32138;50.966;6.968;2023-02-01T05:21:58;8.20;94.80
46440;DHT22;32138;50.966;6.968;2023-02-01T05:22:58;8.30;94.80
46440;DHT22;32138;50.966;6.968;2023-02-01T05:23:59;8.30;94.70
46440;DHT22;32138;50.966;6.968;2023-02-01T05:25:20;8.30;94.70
46440;DHT22;32138;50.966;6.968;2023-02-01T05:26:21;8.30;94.70
46440;DHT22;32138;50.966;6.968;2023-02-01T05:27:22;8.30;94.60
46440;DHT22;32138;50.966;6.968;2023-02-01T05:28:23;8.20;94.70
46440;DHT22;32138;50.966;6.968;2023-02-01T05:29:23;8.20;94.70
46440;DHT22;32138;50.966;6.968;2023-02-01T05:30:24;8.30;94.70
46440;DHT22;32138;50.966;6.968;2023-02-01T05:31:25;8.20;94.60
46440;DHT22;32138;50.966;6.968;2023-02-01T05:32:26;8.20;94.70
46440;DHT22;32138;50.966;6.968;2023-02-01T05:33:26;8.10;94.70
46440;DHT22;32138;50.966;6.968;2023-02-01T05:34:27;8.20;94.50
46440;DHT22;32138;50.966;6.968;2023-02-01T05:35:28;8.10;94.70
46440;DHT22;32138;50.966;6.968;2023-02-01T05:36:29;8.10;94.60
46440;DHT22;32138;50.966;6.968;2023-02-01T05:37:29;8.20;94.50
46440;DHT22;32138;50.966;6.968;2023-02-01T05:38:30;8.10;94.50
46440;DHT22;32138;50.966;6.968;2023-02-01T05:39:31;8.10;94.50
46440;DHT22;32138;50.966;6.968;2023-02-01T05:40:31;8.20;94.60
46440;DHT22;32138;50.966;6.968;2023-02-01T05:41:32;8.20;94.50
46440;DHT22;32138;50.966;6.968;2023-02-01T05:42:33;8.20;94.30
46440;DHT22;32138;50.966;6.968;2023-02-01T05:43:34;8.20;94.50
46440;DHT22;32138;50.966;6.968;2023-02-01T05:44:35;8.20;94.40
46440;DHT22;32138;50.966;6.968;2023-02-01T05:45:35;8.10;94.40
46440;DHT22;32138;50.966;6.968;2023-02-01T05:46:36;8.10;94.30
46440;DHT22;32138;50.966;6.968;2023-02-01T05:47:37;8.10;94.40
46440;DHT22;32138;50.966;6.968;2023-02-01T05:48:39;8.10;94.20
46440;DHT22;32138;50.966;6.968;2023-02-01T05:49:40;8.20;94.20
46440;DHT22;32138;50.966;6.968;2023-02-01T05:50:41;8.20;94.30
46440;DHT22;32138;50.966;6.968;2023-02-01T05:51:42;8.20;94.20
46440;DHT22;32138;50.966;6.968;2023-02-01T05:52:42;8.10;94.10
46440;DHT22;32138;50.966;6.968;2023-02-01T05:53:43;8.10;94.20
46440;DHT22;32138;50.966;6.968;2023-02-01T05:54:44;8.10;94.20
46440;DHT22;32138;50.966;6.968;2023-02-01T05:55:47;8.10;94.10
46440;DHT22;32138;50.966;6.968;2023-02-01T05:56:47;8.10;94.30
46440;DHT22;32138;50.966;6.968;2023-02-01T05:57:48;8.10;94.40
46440;DHT22;32138;50.966;6.968;2023-02-01T05:58:49;8.20;94.20
46440;DHT22;32138;50.966;6.968;2023-02-01T05:59:50;8.10;94.10
46440;DHT22;32138;50.966;6.968;2023-02-01T06:00:50;8.10;94.10
46440;DHT22;32138;50.966;6.968;2023-02-01T06:01:51;8.10;94.20
46440;DHT22;32138;50.966;6.968;2023-02-01T06:02:52;8.00;94.40
46440;DHT22;32138;50.966;6.968;2023-02-01T06:03:53;8.10;94.30
46440;DHT22;32138;50.966;6.968;2023-02-01T06:04:54;8.00;94.30
46440;DHT22;32138;50.966;6.968;2023-02-01T06:05:54;8.00;94.40
46440;DHT22;32138;50.966;6.968;2023-02-01T06:06:55;8.00;94.30
46440;DHT22;32138;50.966;6.968;2023-02-01T06:07:56;8.00;94.50
46440;DHT22;32138;50.966;6.968;2023-02-01T06:08:57;8.00;94.60
46440;DHT22;32138;50.966;6.968;2023-02-01T06:09:58;8.00;94.30
46440;DHT22;32138;50.966;6.968;2023-02-01T06:11:00;8.10;94.60
46440;DHT22;32138;50.966;6.968;2023-02-01T06:12:01;8.10;94.30
46440;DHT22;32138;50.966;6.968;2023-02-01T06:13:03;8.00;94.30
46440;DHT22;32138;50.966;6.968;2023-02-01T06:14:04;8.00;94.20
46440;DHT22;32138;50.966;6.968;2023-02-01T06:15:05;8.10;94.40
46440;DHT22;32138;50.966;6.968;2023-02-01T06:16:06;8.10;94.20
46440;DHT22;32138;50.966;6.968;2023-02-01T06:17:07;8.10;94.30
46440;DHT22;32138;50.966;6.968;2023-02-01T06:18:08;8.00;94.20
46440;DHT22;32138;50.966;6.968;2023-02-01T06:19:09;8.10;94.40
46440;DHT22;32138;50.966;6.968;2023-02-01T06:20:11;8.10;94.30
46440;DHT22;32138;50.966;6.968;2023-02-01T06:21:15;8.10;94.20
46440;DHT22;32138;50.966;6.968;2023-02-01T06:22:23;8.20;94.20
46440;DHT22;32138;50.966;6.968;2023-02-01T06:23:24;8.10;94.30
46440;DHT22;32138;50.966;6.968;2023-02-01T06:24:25;8.00;94.40
46440;DHT22;32138;50.966;6.968;2023-02-01T06:25:25;8.00;94.30
46440;DHT22;32138;50.966;6.968;2023-02-01T06:26:26;7.90;94.40
46440;DHT22;32138;50.966;6.968;2023-02-01T06:27:28;8.00;94.40
46440;DHT22;32138;50.966;6.968;2023-02-01T06:28:31;8.00;94.40
46440;DHT22;32138;50.966;6.968;2023-02-01T06:29:33;8.10;94.30
46440;DHT22;32138;50.966;6.968;2023-02-01T06:30:33;8.10;94.10
46440;DHT22;32138;50.966;6.968;2023-02-01T06:31:34;8.00;94.30
46440;DHT22;32138;50.966;6.968;2023-02-01T06:32:35;8.00;94.30
46440;DHT22;32138;50.966;6.968;2023-02-01T06:33:36;8.00;94.30
46440;DHT22;32138;50.966;6.968;2023-02-01T06:34:37;8.10;94.30
46440;DHT22;32138;50.966;6.968;2023-02-01T06:35:40;8.10;93.90
46440;DHT22;32138;50.966;6.968;2023-02-01T06:36:44;8.10;94.40
46440;DHT22;32138;50.966;6.968;2023-02-01T06:37:45;8.10;94.10
46440;DHT22;32138;50.966;6.968;2023-02-01T06:38:46;8.20;94.10
46440;DHT22;32138;50.966;6.968;2023-02-01T06:39:47;8.10;94.10
46440;DHT22;32138;50.966;6.968;2023-02-01T06:40:52;8.20;94.10
46440;DHT22;32138;50.966;6.968;2023-02-01T06:41:54;8.30;94.00
46440;DHT22;32138;50.966;6.968;2023-02-01T06:42:54;8.20;94.20
46440;DHT22;32138;50.966;6.968;2023-02-01T06:43:55;8.10;94.10
46440;DHT22;32138;50.966;6.968;2023-02-01T06:44:56;8.20;94.20
46440;DHT22;32138;50.966;6.968;2023-02-01T06:46:06;8.20;94.20
46440;DHT22;32138;50.966;6.968;2023-02-01T06:47:08;8.30;93.90
46440;DHT22;32138;50.966;6.968;2023-02-01T06:48:08;8.20;94.00
46440;DHT22;32138;50.966;6.968;2023-02-01T06:49:09;8.20;94.10
46440;DHT22;32138;50.966;6.968;2023-02-01T06:50:10;8.30;93.60
46440;DHT22;32138;50.966;6.968;2023-02-01T06:51:22;8.20;93.80
46440;DHT22;32138;50.966;6.968;2023-02-01T06:52:24;8.20;94.00
46440;DHT22;32138;50.966;6.968;2023-02-01T06:53:25;8.10;94.10
46440;DHT22;32138;50.966;6.968;2023-02-01T06:54:28;8.20;94.00
46440;DHT22;32138;50.966;6.968;2023-02-01T06:55:32;8.20;94.00
46440;DHT22;32138;50.966;6.968;2023-02-01T06:56:33;8.20;94.00
46440;DHT22;32138;50.966;6.968;2023-02-01T06:57:34;8.20;94.00
46440;DHT22;32138;50.966;6.968;2023-02-01T06:58:36;8.30;94.00
46440;DHT22;32138;50.966;6.968;2023-02-01T06:59:37;8.30;94.00
46440;DHT22;32138;50.966;6.968;2023-02-01T07:00:38;8.30;93.90
46440;DHT22;32138;50.966;6.968;2023-02-01T07:01:39;8.30;93.90
46440;DHT22;32138;50.966;6.968;2023-02-01T07:02:40;8.20;94.00
46440;DHT22;32138;50.966;6.968;2023-02-01T07:03:41;8.20;94.20
46440;DHT22;32138;50.966;6.968;2023-02-01T07:04:42;8.30;94.00
46440;DHT22;32138;50.966;6.968;2023-02-01T07:05:43;8.20;94.00
46440;DHT22;32138;50.966;6.968;2023-02-01T07:06:43;8.20;94.30
46440;DHT22;32138;50.966;6.968;2023-02-01T07:07:44;8.20;94.30
46440;DHT22;32138;50.966;6.968;2023-02-01T07:08:45;8.20;94.10
46440;DHT22;32138;50.966;6.968;2023-02-01T07:09:46;8.10;94.20
46440;DHT22;32138;50.966;6.968;2023-02-01T07:10:47;8.10;94.30
46440;DHT22;32138;50.966;6.968;2023-02-01T07:11:47;8.00;94.70
46440;DHT22;32138;50.966;6.968;2023-02-01T07:12:48;8.00;94.70
46440;DHT22;32138;50.966;6.968;2023-02-01T07:13:49;8.00;94.50
46440;DHT22;32138;50.966;6.968;2023-02-01T07:14:50;8.00;94.30
46440;DHT22;32138;50.966;6.968;2023-02-01T07:15:50;8.00;94.70
46440;DHT22;32138;50.966;6.968;2023-02-01T07:16:51;8.00;94.70
46440;DHT22;32138;50.966;6.968;2023-02-01T07:17:54;8.00;94.60
46440;DHT22;32138;50.966;6.968;2023-02-01T07:18:55;8.00;94.70
46440;DHT22;32138;50.966;6.968;2023-02-01T07:19:56;8.10;94.70
46440;DHT22;32138;50.966;6.968;2023-02-01T07:21:00;8.10;94.70
46440;DHT22;32138;50.966;6.968;2023-02-01T07:22:00;8.20;94.60
46440;DHT22;32138;50.966;6.968;2023-02-01T07:23:01;8.10;94.60